Time;durP1;ratioP1;P1;durP2;ratioP2;P2;SDS_P1;SDS_P2;PMS_P1;PMS_P2;Temp;Humidity;BMP_temperature;BMP_pressure;BME280_temperature;BME280_humidity;BME280_pressure;Samples;Min_cycle;Max_cycle;Signal;HPM_P1;HPM_P2
2024/01/23 00:00:08;;;;;;;;;2.00;1.50;;;;;10.39;67.51;101996.72;5040181;28;45216;-66
2024/01/23 00:02:34;;;;;;;;;2.75;2.00;;;;;10.36;68.04;102002.84;5070906;27;45835;-67
2024/01/23 00:04:59;;;;;;;;;6.00;1.75;;;;;10.34;67.71;102008.94;5037026;28;45518;-67
2024/01/23 00:07:24;;;;;;;;;7.25;2.25;;;;;10.33;67.87;102015.94;5037813;28;66573;-66
2024/01/23 00:09:50;;;;;;;;;4.75;2.25;;;;;10.31;68.04;102020.31;5038685;28;46070;-66
2024/01/23 00:12:15;;;;;;;;;1.00;1.00;;;;;10.27;68.23;102022.03;5038620;28;57765;-67
2024/01/23 00:14:40;;;;;;;;;4.00;1.00;;;;;10.27;67.97;102019.44;5036706;28;68322;-68
2024/01/23 00:17:06;;;;;;;;;4.00;2.00;;;;;10.25;68.24;102021.19;5042090;28;67941;-68
2024/01/23 00:19:31;;;;;;;;;7.50;2.00;;;;;10.23;68.20;102033.41;5045929;28;54667;-68
2024/01/23 00:21:56;;;;;;;;;4.25;1.00;;;;;10.23;68.20;102027.28;5038714;28;45622;-68
2024/01/23 00:24:22;;;;;;;;;3.00;1.00;;;;;10.21;68.35;102026.44;5037807;28;45342;-68
2024/01/23 00:26:47;;;;;;;;;2.00;0.75;;;;;10.20;68.76;102045.63;5044924;28;71928;-67
2024/01/23 00:29:12;;;;;;;;;4.50;0.00;;;;;10.20;68.92;102048.25;5041144;28;75692;-68
2024/01/23 00:31:37;;;;;;;;;2.50;2.00;;;;;10.18;69.20;102045.63;5044130;28;70638;-67
2024/01/23 00:34:03;;;;;;;;;2.25;2.00;;;;;10.18;68.72;102047.38;5046695;28;45474;-67
2024/01/23 00:36:29;;;;;;;;;4.25;2.00;;;;;10.16;69.26;102052.59;5036691;28;45289;-68
2024/01/23 00:38:54;;;;;;;;;3.50;1.00;;;;;10.15;69.49;102050.00;5039627;28;45215;-68
2024/01/23 00:41:19;;;;;;;;;4.00;1.00;;;;;10.17;69.57;102058.72;5037056;28;63399;-67
2024/01/23 00:43:45;;;;;;;;;8.25;2.00;;;;;10.19;69.42;102075.28;5036300;28;45253;-67
2024/01/23 00:46:10;;;;;;;;;3.50;2.00;;;;;10.23;69.38;102087.47;5053026;28;55042;-67
2024/01/23 00:48:36;;;;;;;;;1.00;0.50;;;;;10.27;69.60;102083.97;5044522;28;62262;-67
2024/01/23 00:51:01;;;;;;;;;4.00;2.00;;;;;10.32;69.97;102076.13;5041197;28;60345;-67
2024/01/23 00:53:26;;;;;;;;;3.50;2.25;;;;;10.36;69.87;102083.09;5073496;27;45421;-67
2024/01/23 00:55:52;;;;;;;;;4.25;3.00;;;;;10.39;69.46;102085.69;5047382;28;45404;-67
2024/01/23 00:58:17;;;;;;;;;2.00;0.75;;;;;10.44;68.97;102095.25;5045325;28;45920;-67
2024/01/23 01:00:44;;;;;;;;;3.50;1.75;;;;;10.48;68.61;102092.63;5046395;28;73258;-67
2024/01/23 01:03:10;;;;;;;;;1.75;1.00;;;;;10.45;68.03;102081.28;5052574;28;45492;-66
2024/01/23 01:05:35;;;;;;;;;3.50;1.75;;;;;10.43;67.92;102090.03;5043649;28;45512;-66
2024/01/23 01:08:01;;;;;;;;;2.75;0.75;;;;;10.37;67.66;102090.91;5078464;27;69424;-66
2024/01/23 01:10:26;;;;;;;;;2.50;1.00;;;;;10.36;68.02;102098.81;5050317;28;72267;-67
2024/01/23 01:12:53;;;;;;;;;4.00;0.75;;;;;10.32;68.25;102105.75;5046794;28;59493;-66
2024/01/23 01:15:18;;;;;;;;;3.75;0.50;;;;;10.31;68.22;102105.75;5054667;28;45726;-67
2024/01/23 01:17:44;;;;;;;;;5.00;2.00;;;;;10.25;68.61;102114.47;5041723;28;46046;-67
2024/01/23 01:20:10;;;;;;;;;2.50;1.75;;;;;10.23;68.76;102109.28;5085146;27;54135;-67
2024/01/23 01:22:35;;;;;;;;;2.75;1.00;;;;;10.03;69.72;102111.06;5048311;28;45325;-67
2024/01/23 01:25:01;;;;;;;;;3.00;1.00;;;;;9.97;70.01;102109.34;5041777;28;45517;-67
2024/01/23 01:27:27;;;;;;;;;5.00;2.00;;;;;9.95;70.39;102107.59;5042834;28;46002;-67
2024/01/23 01:29:52;;;;;;;;;5.00;1.50;;;;;9.94;70.66;102118.94;5050106;28;45810;-67
2024/01/23 01:32:17;;;;;;;;;5.00;1.00;;;;;9.92;70.95;102111.09;5053128;28;58698;-67
2024/01/23 01:34:43;;;;;;;;;2.00;1.00;;;;;9.90;71.11;102120.69;5083684;27;63196;-67
2024/01/23 01:37:08;;;;;;;;;3.75;2.00;;;;;9.88;71.42;102122.44;5084618;27;45341;-67
2024/01/23 01:39:33;;;;;;;;;2.75;1.00;;;;;9.88;71.32;102132.91;5038789;28;61908;-67
2024/01/23 01:41:59;;;;;;;;;4.00;1.00;;;;;9.84;71.57;102134.66;5045873;28;45335;-67
2024/01/23 01:44:24;;;;;;;;;4.00;1.50;;;;;9.83;71.89;102132.91;5040349;28;45414;-67
2024/01/23 01:46:51;;;;;;;;;1.75;1.75;;;;;9.81;71.89;102136.38;5041170;28;46920;-67
2024/01/23 01:49:16;;;;;;;;;7.00;3.00;;;;;9.80;72.20;102143.34;5039513;28;45331;-67
2024/01/23 01:51:42;;;;;;;;;4.75;2.00;;;;;9.80;72.21;102147.72;5043306;28;45318;-68
2024/01/23 01:54:07;;;;;;;;;2.50;1.75;;;;;9.78;72.25;102139.88;5075179;27;45561;-67
2024/01/23 01:56:33;;;;;;;;;5.00;2.00;;;;;9.76;72.53;102146.84;5039148;28;71098;-67
2024/01/23 01:58:59;;;;;;;;;6.50;2.00;;;;;9.73;72.30;102157.31;5079397;27;45254;-67
2024/01/23 02:01:26;;;;;;;;;3.00;1.00;;;;;9.74;72.61;102155.56;5078812;27;45387;-67
2024/01/23 02:03:51;;;;;;;;;6.25;2.00;;;;;9.74;72.91;102156.44;5045389;28;45538;-67
2024/01/23 02:06:17;;;;;;;;;6.75;1.00;;;;;9.74;72.68;102152.94;5050264;28;71569;-67
2024/01/23 02:08:42;;;;;;;;;1.00;0.75;;;;;9.74;72.79;102155.56;5042944;28;45414;-67
2024/01/23 02:11:07;;;;;;;;;7.50;1.50;;;;;9.72;72.97;102160.81;5057827;28;50436;-67
2024/01/23 02:13:33;;;;;;;;;3.25;1.25;;;;;9.72;72.90;102171.28;5052030;28;45563;-67
2024/01/23 02:15:58;;;;;;;;;4.75;1.50;;;;;9.72;72.86;102175.59;5040598;28;74154;-68
2024/01/23 02:18:23;;;;;;;;;4.50;2.00;;;;;9.72;72.83;102173.00;5042547;28;69803;-67
2024/01/23 02:20:49;;;;;;;;;5.25;2.00;;;;;9.71;73.14;102163.44;5052690;28;45442;-67
2024/01/23 02:23:15;;;;;;;;;6.75;2.00;;;;;9.67;73.25;102166.03;5055930;28;67324;-67
2024/01/23 02:25:41;;;;;;;;;3.00;2.00;;;;;9.68;72.83;102177.34;5053207;28;45430;-67
2024/01/23 02:28:07;;;;;;;;;4.00;3.00;;;;;9.67;72.88;102171.25;5055688;28;45951;-67
2024/01/23 02:30:34;;;;;;;;;1.00;1.00;;;;;9.67;72.87;102173.00;5053632;28;45364;-67
2024/01/23 02:33:00;;;;;;;;;5.75;2.75;;;;;9.66;73.22;102168.63;5042839;28;45177;-67
2024/01/23 02:35:26;;;;;;;;;3.75;2.00;;;;;9.65;73.41;102169.50;5046703;28;46077;-67
2024/01/23 02:37:51;;;;;;;;;1.00;1.00;;;;;9.65;73.21;102174.72;5054620;28;72720;-67
2024/01/23 02:40:16;;;;;;;;;4.00;2.00;;;;;9.64;73.23;102165.16;5054021;28;45477;-67
2024/01/23 02:42:42;;;;;;;;;4.25;1.50;;;;;9.64;73.65;102162.53;5046178;28;45399;-68
2024/01/23 02:45:07;;;;;;;;;4.50;2.50;;;;;9.64;73.54;102162.53;5048493;28;46331;-69
2024/01/23 02:47:33;;;;;;;;;2.00;1.25;;;;;9.65;73.60;102159.03;5044444;28;45283;-67
2024/01/23 02:49:58;;;;;;;;;3.25;1.50;;;;;9.64;73.76;102166.03;5040175;28;61027;-67
2024/01/23 02:52:25;;;;;;;;;3.75;1.00;;;;;9.62;73.59;102154.69;5045961;28;45621;-67
2024/01/23 02:54:50;;;;;;;;;4.00;1.00;;;;;9.64;73.96;102168.63;5043839;28;46130;-68
2024/01/23 02:57:15;;;;;;;;;2.00;2.00;;;;;9.63;73.93;102168.63;5047150;28;48385;-67
2024/01/23 02:59:41;;;;;;;;;4.00;1.00;;;;;9.63;73.75;102160.78;5042567;28;45347;-66
2024/01/23 03:02:06;;;;;;;;;3.50;1.00;;;;;9.64;73.95;102176.47;5050762;28;45260;-67
2024/01/23 03:04:32;;;;;;;;;4.25;2.00;;;;;9.63;73.82;102174.75;5045883;28;47370;-68
2024/01/23 03:06:57;;;;;;;;;1.50;1.00;;;;;9.63;74.31;102174.75;5046627;28;45411;-67
2024/01/23 03:09:22;;;;;;;;;3.50;1.00;;;;;9.61;73.98;102173.00;5041591;28;45406;-67
2024/01/23 03:11:48;;;;;;;;;6.25;1.50;;;;;9.61;74.55;102170.38;5042790;28;45486;-68
2024/01/23 03:14:13;;;;;;;;;5.25;2.00;;;;;9.59;74.35;102161.69;5042501;28;64736;-67
2024/01/23 03:16:38;;;;;;;;;6.50;1.75;;;;;9.57;74.24;102171.25;5038365;28;48573;-67
2024/01/23 03:19:04;;;;;;;;;3.00;2.00;;;;;9.59;74.50;102179.97;5037551;28;69509;-69
2024/01/23 03:21:29;;;;;;;;;2.50;1.50;;;;;9.57;74.35;102179.97;5042010;28;45467;-67
2024/01/23 03:23:57;;;;;;;;;4.00;1.00;;;;;9.55;74.63;102178.25;5039327;28;75549;-68
2024/01/23 03:26:23;;;;;;;;;4.00;1.00;;;;;9.55;74.54;102184.31;5038574;28;45874;-67
2024/01/23 03:28:48;;;;;;;;;7.25;2.50;;;;;9.54;74.51;102187.78;5053829;28;53455;-67
2024/01/23 03:31:13;;;;;;;;;6.25;2.00;;;;;9.54;74.94;102193.03;5046580;28;45624;-66
2024/01/23 03:33:39;;;;;;;;;7.00;2.00;;;;;9.54;74.97;102189.53;5039702;28;45440;-66
2024/01/23 03:36:05;;;;;;;;;4.50;2.00;;;;;9.50;74.69;102186.91;5039116;28;45506;-67
2024/01/23 03:38:30;;;;;;;;;7.75;1.75;;;;;9.52;74.78;102189.53;5050224;28;45305;-67
2024/01/23 03:40:55;;;;;;;;;7.00;1.00;;;;;9.49;75.44;102182.59;5040905;28;72129;-65
2024/01/23 03:43:22;;;;;;;;;4.00;1.00;;;;;9.49;75.01;102186.91;5042724;28;54039;-65
2024/01/23 03:45:47;;;;;;;;;9.50;2.00;;;;;9.50;75.12;102188.66;5073038;27;45426;-66
2024/01/23 03:48:13;;;;;;;;;5.00;2.00;;;;;9.49;75.12;102198.25;5054179;28;45393;-68
2024/01/23 03:50:38;;;;;;;;;8.00;1.25;;;;;9.49;75.43;102202.59;5048160;28;45619;-67
2024/01/23 03:53:03;;;;;;;;;3.25;2.00;;;;;9.47;75.08;102199.13;5044581;28;46257;-68
2024/01/23 03:55:29;;;;;;;;;3.00;1.00;;;;;9.47;75.32;102212.19;5040156;28;72826;-67
2024/01/23 03:57:54;;;;;;;;;6.25;3.25;;;;;9.45;75.18;102220.00;5045402;28;69405;-67
2024/01/23 04:00:20;;;;;;;;;6.25;1.25;;;;;9.44;75.56;102225.25;5041904;28;45933;-68
2024/01/23 04:02:45;;;;;;;;;4.00;2.00;;;;;9.41;75.67;102220.03;5043942;28;45596;-67
2024/01/23 04:05:10;;;;;;;;;7.50;2.25;;;;;9.40;75.55;102219.16;5044193;28;57959;-67
2024/01/23 04:07:36;;;;;;;;;4.00;2.00;;;;;9.39;75.64;102225.25;5038745;28;45291;-67
2024/01/23 04:10:04;;;;;;;;;4.00;4.00;;;;;9.38;75.70;102227.84;5035364;28;45547;-67
2024/01/23 04:12:29;;;;;;;;;5.00;2.00;;;;;9.37;75.93;102234.81;5048888;28;46166;-67
2024/01/23 04:14:54;;;;;;;;;2.25;1.00;;;;;9.36;75.89;102238.28;5034439;28;45607;-67
2024/01/23 04:17:20;;;;;;;;;4.25;1.25;;;;;9.36;76.00;102246.13;5045062;28;58859;-67
2024/01/23 04:19:45;;;;;;;;;2.00;2.00;;;;;9.35;75.80;102241.78;5045883;28;73075;-67
2024/01/23 04:22:11;;;;;;;;;3.00;1.00;;;;;9.38;75.96;102240.91;5044358;28;74562;-66
2024/01/23 04:24:37;;;;;;;;;5.25;2.00;;;;;9.39;75.96;102235.69;5043725;28;45551;-66
2024/01/23 04:27:03;;;;;;;;;2.50;1.50;;;;;9.43;76.27;102233.97;5038569;28;45628;-67
2024/01/23 04:29:29;;;;;;;;;4.50;1.25;;;;;9.47;75.87;102233.97;5038555;28;45456;-67
2024/01/23 04:31:54;;;;;;;;;7.50;3.50;;;;;9.53;75.87;102242.69;5047892;28;75904;-67
2024/01/23 04:34:19;;;;;;;;;3.50;3.00;;;;;9.58;75.78;102243.56;5055430;28;73739;-66
2024/01/23 04:36:45;;;;;;;;;5.75;1.00;;;;;9.64;75.98;102248.81;5044607;28;45402;-66
2024/01/23 04:39:10;;;;;;;;;2.75;2.00;;;;;9.68;75.79;102259.28;5040691;28;71720;-66
2024/01/23 04:41:35;;;;;;;;;7.75;2.00;;;;;9.72;75.37;102256.66;5041498;28;62488;-67
2024/01/23 04:44:01;;;;;;;;;4.00;2.00;;;;;9.77;75.59;102267.97;5041123;28;46408;-68
2024/01/23 04:46:26;;;;;;;;;4.00;2.00;;;;;9.81;75.02;102269.72;5049374;28;57843;-68
2024/01/23 04:48:51;;;;;;;;;6.25;2.25;;;;;9.85;75.36;102274.09;5045467;28;45303;-67
2024/01/23 04:51:17;;;;;;;;;5.00;1.50;;;;;9.89;75.17;102286.28;5052859;28;45471;-68
2024/01/23 04:53:42;;;;;;;;;4.75;2.75;;;;;9.91;75.30;102292.41;5045107;28;65199;-68
2024/01/23 04:56:07;;;;;;;;;4.50;2.00;;;;;9.94;74.87;102302.88;5042938;28;45456;-67
2024/01/23 04:58:33;;;;;;;;;7.25;2.75;;;;;9.98;74.91;102304.59;5051388;28;73240;-67
2024/01/23 05:00:58;;;;;;;;;7.00;2.00;;;;;9.99;74.75;102305.50;5043839;28;61911;-67
2024/01/23 05:03:23;;;;;;;;;3.50;2.00;;;;;10.02;74.54;102313.31;5039341;28;67174;-68
2024/01/23 05:05:49;;;;;;;;;5.00;1.25;;;;;10.08;74.59;102318.56;5039510;28;45808;-67
2024/01/23 05:08:15;;;;;;;;;5.75;1.25;;;;;10.12;74.61;102311.59;5045206;28;45342;-68
2024/01/23 05:10:42;;;;;;;;;5.50;0.75;;;;;10.14;74.68;102305.47;5044770;28;47058;-67
2024/01/23 05:13:08;;;;;;;;;3.00;1.25;;;;;10.15;74.48;102307.25;5044532;28;45355;-68
2024/01/23 05:15:33;;;;;;;;;5.25;2.50;;;;;10.13;74.21;102303.75;5035444;28;67664;-68
2024/01/23 05:17:59;;;;;;;;;4.00;2.50;;;;;10.12;74.63;102311.59;5041812;28;45520;-68
2024/01/23 05:20:24;;;;;;;;;4.50;2.00;;;;;10.12;74.73;102319.44;5041053;28;59308;-68
2024/01/23 05:22:49;;;;;;;;;5.50;2.00;;;;;10.12;74.66;102325.53;5041452;28;50391;-67
2024/01/23 05:25:16;;;;;;;;;5.75;3.25;;;;;10.13;74.68;102331.63;5057005;28;46292;-66
2024/01/23 05:27:42;;;;;;;;;2.50;1.00;;;;;10.12;74.53;102329.91;5041366;28;45359;-66
2024/01/23 05:30:07;;;;;;;;;11.50;4.00;;;;;10.11;74.48;102342.13;5041455;28;46785;-68
2024/01/23 05:32:33;;;;;;;;;4.00;1.50;;;;;10.11;74.40;102342.13;5041361;28;45221;-67
2024/01/23 05:34:59;;;;;;;;;3.25;1.00;;;;;10.11;74.33;102349.97;5040666;28;53403;-67
2024/01/23 05:37:25;;;;;;;;;4.75;2.50;;;;;10.11;74.56;102347.34;5049395;28;45382;-66
2024/01/23 05:39:50;;;;;;;;;4.25;2.00;;;;;10.12;74.46;102348.22;5041365;28;46902;-67
2024/01/23 05:42:16;;;;;;;;;8.25;3.00;;;;;10.09;74.93;102354.31;5039265;28;65939;-66
2024/01/23 05:44:41;;;;;;;;;4.50;3.00;;;;;10.06;74.71;102354.31;5040370;28;45472;-68
2024/01/23 05:47:06;;;;;;;;;6.25;2.00;;;;;10.03;74.74;102364.78;5040099;28;72838;-68
2024/01/23 05:49:32;;;;;;;;;4.50;3.00;;;;;10.00;75.01;102360.41;5042599;28;68289;-67
2024/01/23 05:51:57;;;;;;;;;7.75;3.00;;;;;9.98;75.00;102358.66;5047476;28;45379;-67
2024/01/23 05:54:22;;;;;;;;;4.50;2.00;;;;;9.96;75.13;102370.88;5042729;28;62044;-67
2024/01/23 05:56:48;;;;;;;;;3.25;2.00;;;;;9.96;74.76;102371.72;5024899;28;53698;-67
2024/01/23 05:59:13;;;;;;;;;4.00;3.00;;;;;9.96;75.08;102379.56;5048519;28;46190;-67
2024/01/23 06:01:39;;;;;;;;;6.00;2.00;;;;;9.97;74.80;102388.28;5045372;28;45410;-68
2024/01/23 06:04:07;;;;;;;;;4.75;2.00;;;;;9.98;75.34;102393.53;5043950;28;57697;-68
2024/01/23 06:06:32;;;;;;;;;4.75;2.00;;;;;10.00;75.25;102398.75;5039803;28;45303;-68
2024/01/23 06:08:57;;;;;;;;;6.75;1.00;;;;;10.00;74.89;102385.69;5038913;28;67959;-68
2024/01/23 06:11:23;;;;;;;;;6.25;3.50;;;;;10.01;75.06;102390.06;5038046;28;71451;-67
2024/01/23 06:13:48;;;;;;;;;5.25;1.75;;;;;10.00;74.87;102389.16;5033823;28;69462;-68
2024/01/23 06:16:13;;;;;;;;;6.00;2.00;;;;;10.00;75.35;102377.84;5044686;28;45991;-68
2024/01/23 06:18:39;;;;;;;;;2.50;2.00;;;;;9.99;75.34;102390.06;5039375;28;65276;-67
2024/01/23 06:21:04;;;;;;;;;4.50;2.00;;;;;9.98;75.08;102390.03;5047596;28;65911;-68
2024/01/23 06:23:29;;;;;;;;;3.50;3.00;;;;;10.01;75.52;102397.91;5048503;28;54901;-68
2024/01/23 06:25:55;;;;;;;;;2.25;1.00;;;;;10.00;75.51;102386.53;5048311;28;45469;-67
2024/01/23 06:28:20;;;;;;;;;7.50;2.00;;;;;10.00;75.76;102383.06;5049486;28;72741;-68
2024/01/23 06:30:45;;;;;;;;;10.50;2.00;;;;;10.02;75.71;102387.44;5038979;28;58410;-68
2024/01/23 06:33:12;;;;;;;;;3.25;2.00;;;;;10.02;75.47;102390.06;5045695;28;45522;-68
2024/01/23 06:35:37;;;;;;;;;4.00;2.00;;;;;10.02;75.48;102386.56;5045364;28;45451;-68
2024/01/23 06:38:03;;;;;;;;;3.00;3.00;;;;;10.01;75.35;102390.94;5039758;28;58608;-66
2024/01/23 06:40:28;;;;;;;;;5.00;1.75;;;;;10.00;75.85;102391.78;5049252;28;67621;-66
2024/01/23 06:42:53;;;;;;;;;5.75;2.00;;;;;9.99;75.64;102383.97;5038941;28;68593;-66
2024/01/23 06:45:19;;;;;;;;;7.75;4.00;;;;;9.99;76.18;102387.44;5042527;28;46286;-67
2024/01/23 06:47:44;;;;;;;;;5.50;2.00;;;;;10.00;75.79;102383.94;5038580;28;46393;-68
2024/01/23 06:50:09;;;;;;;;;5.50;1.50;;;;;10.01;75.88;102385.69;5042824;28;45566;-66
2024/01/23 06:52:35;;;;;;;;;10.50;2.25;;;;;10.01;76.06;102384.81;5040699;28;45437;-64
2024/01/23 06:55:00;;;;;;;;;5.00;3.00;;;;;10.00;75.72;102378.69;5051156;28;45251;-69
2024/01/23 06:57:26;;;;;;;;;4.75;2.00;;;;;9.99;75.70;102387.44;5051377;28;45254;-63
2024/01/23 06:59:51;;;;;;;;;3.25;3.00;;;;;9.97;76.10;102386.56;5049970;28;73499;-65
2024/01/23 07:02:16;;;;;;;;;13.00;4.00;;;;;9.97;76.13;102388.28;5040235;28;69538;-64
2024/01/23 07:04:41;;;;;;;;;5.25;3.00;;;;;9.97;76.22;102390.91;5038835;28;58556;-64
2024/01/23 07:07:08;;;;;;;;;9.75;3.25;;;;;9.98;76.24;102395.28;5039273;28;75737;-63
2024/01/23 07:09:34;;;;;;;;;3.00;1.25;;;;;9.97;76.55;102394.41;5054881;28;45292;-65
2024/01/23 07:11:59;;;;;;;;;6.25;2.75;;;;;9.97;76.32;102402.25;5038319;28;69146;-65
2024/01/23 07:14:24;;;;;;;;;6.50;2.00;;;;;9.98;76.14;102403.97;5036001;28;45544;-66
2024/01/23 07:16:50;;;;;;;;;7.25;3.00;;;;;9.96;76.37;102407.47;5045466;28;53688;-66
2024/01/23 07:19:15;;;;;;;;;44.00;31.75;;;;;9.99;76.62;102421.44;5038608;28;45644;-67
2024/01/23 07:21:40;;;;;;;;;9.50;5.00;;;;;9.99;76.46;102421.44;5039275;28;66628;-63
2024/01/23 07:24:06;;;;;;;;;5.25;3.00;;;;;10.00;76.57;102430.16;5038722;28;45306;-67
2024/01/23 07:26:32;;;;;;;;;4.50;4.00;;;;;9.97;76.21;102430.13;5041717;28;45429;-64
2024/01/23 07:28:57;;;;;;;;;7.00;4.00;;;;;9.99;76.74;102437.13;5040961;28;59539;-67
2024/01/23 07:31:22;;;;;;;;;6.00;4.00;;;;;10.00;76.67;102430.16;5038011;28;66130;-68
2024/01/23 07:33:50;;;;;;;;;11.25;4.00;;;;;10.00;76.88;102427.53;5035759;28;45730;-64
2024/01/23 07:36:15;;;;;;;;;5.75;3.75;;;;;10.00;76.57;102427.53;5020051;28;59425;-64
2024/01/23 07:38:40;;;;;;;;;11.00;3.00;;;;;10.01;76.67;102421.44;5032933;28;45569;-64
2024/01/23 07:41:06;;;;;;;;;9.75;4.00;;;;;10.02;76.73;102417.94;5043134;28;45407;-64
2024/01/23 07:43:31;;;;;;;;;5.50;3.00;;;;;10.02;76.95;102431.03;5071436;27;45534;-64
2024/01/23 07:45:57;;;;;;;;;3.75;2.75;;;;;10.00;76.91;102420.56;5073798;27;63225;-63
2024/01/23 07:48:22;;;;;;;;;4.50;3.00;;;;;10.03;77.22;102422.31;5051841;28;66607;-61
2024/01/23 07:50:47;;;;;;;;;11.25;3.50;;;;;10.03;77.27;102428.41;5038327;28;45388;-61
2024/01/23 07:53:13;;;;;;;;;5.00;2.50;;;;;10.05;77.43;102433.66;5039225;28;45435;-61
2024/01/23 07:55:38;;;;;;;;;9.50;4.75;;;;;10.02;77.24;102431.91;5038363;28;72932;-60
2024/01/23 07:58:03;;;;;;;;;6.00;2.50;;;;;10.07;77.44;102439.75;5053443;28;70179;-60
2024/01/23 08:00:29;;;;;;;;;9.50;5.25;;;;;10.07;77.62;102448.50;5038093;28;68662;-61
2024/01/23 08:02:54;;;;;;;;;9.25;4.00;;;;;10.07;77.39;102461.56;5039068;28;45586;-60
2024/01/23 08:05:20;;;;;;;;;9.50;4.00;;;;;10.11;77.23;102461.56;5037650;28;66530;-60
2024/01/23 08:07:45;;;;;;;;;10.50;4.00;;;;;10.11;77.17;102465.06;5037742;28;45285;-58
2024/01/23 08:10:11;;;;;;;;;6.75;3.00;;;;;10.12;77.82;102461.56;5037578;28;45750;-59
2024/01/23 08:12:36;;;;;;;;;8.00;4.00;;;;;10.14;77.59;102461.59;5038919;28;45408;-60
2024/01/23 08:15:02;;;;;;;;;8.00;2.75;;;;;10.17;77.92;102466.84;5041216;28;75671;-60
2024/01/23 08:17:27;;;;;;;;;11.75;3.75;;;;;10.21;77.79;102473.81;5039935;28;45292;-61
2024/01/23 08:19:53;;;;;;;;;6.25;5.00;;;;;10.22;77.87;102468.56;5039256;28;45308;-60
2024/01/23 08:22:18;;;;;;;;;7.50;2.75;;;;;10.25;77.78;102465.97;5037842;28;73287;-60
2024/01/23 08:24:43;;;;;;;;;6.75;1.75;;;;;10.26;77.74;102464.22;5041312;28;68933;-61
2024/01/23 08:27:09;;;;;;;;;8.25;5.50;;;;;10.30;77.96;102471.19;5039782;28;46537;-60
2024/01/23 08:29:34;;;;;;;;;5.50;3.25;;;;;10.32;77.80;102471.25;5071213;28;53671;-61
2024/01/23 08:32:00;;;;;;;;;6.00;4.75;;;;;10.34;77.75;102479.97;5041441;28;45461;-61
2024/01/23 08:34:25;;;;;;;;;7.75;4.50;;;;;10.35;77.64;102471.25;5038199;28;46357;-61
2024/01/23 08:36:51;;;;;;;;;7.25;4.75;;;;;10.38;77.60;102474.75;5037718;28;71272;-60
2024/01/23 08:39:16;;;;;;;;;8.25;4.50;;;;;10.39;77.63;102467.75;5038970;28;45203;-61
2024/01/23 08:41:41;;;;;;;;;11.00;3.00;;;;;10.43;77.46;102473.03;5054015;28;54441;-61
2024/01/23 08:44:07;;;;;;;;;14.00;3.00;;;;;10.48;77.55;102470.38;5037861;28;65787;-61
2024/01/23 08:46:32;;;;;;;;;10.00;3.00;;;;;10.52;77.50;102477.41;5035554;28;45418;-61
2024/01/23 08:48:57;;;;;;;;;4.50;3.00;;;;;10.54;77.29;102483.50;5053095;28;69442;-61
2024/01/23 08:51:24;;;;;;;;;7.50;2.75;;;;;10.56;77.58;102481.75;5056191;28;74224;-61
2024/01/23 08:53:50;;;;;;;;;6.25;1.75;;;;;10.58;77.41;102481.75;5047459;28;45591;-61
2024/01/23 08:56:23;;;;;;;;;4.25;2.50;;;;;10.62;77.33;102476.53;5057769;28;45440;-61
2024/01/23 08:58:49;;;;;;;;;7.75;3.25;;;;;10.66;77.44;102472.19;5056604;28;45282;-60
2024/01/23 09:01:14;;;;;;;;;11.50;4.50;;;;;10.70;77.26;102471.28;5057837;28;45292;-61
2024/01/23 09:03:40;;;;;;;;;8.00;5.75;;;;;10.73;77.37;102471.31;5056092;28;49982;-60
2024/01/23 09:06:05;;;;;;;;;7.00;4.50;;;;;10.76;77.10;102475.66;5051486;28;70714;-60
2024/01/23 09:08:30;;;;;;;;;5.50;4.00;;;;;10.77;76.95;102475.66;5054238;28;69441;-61
2024/01/23 09:10:56;;;;;;;;;7.00;4.25;;;;;10.80;77.15;102477.41;5057562;28;69049;-57
2024/01/23 09:13:22;;;;;;;;;8.50;3.75;;;;;10.84;76.97;102481.78;5054643;28;46904;-56
2024/01/23 09:15:47;;;;;;;;;6.25;2.00;;;;;10.89;77.24;102484.38;5038714;28;73092;-59
2024/01/23 09:18:13;;;;;;;;;7.00;5.00;;;;;10.91;77.15;102490.53;5042931;28;45378;-61
2024/01/23 09:20:38;;;;;;;;;10.25;4.00;;;;;10.97;76.83;102491.38;5042363;28;73913;-60
2024/01/23 09:23:04;;;;;;;;;6.25;3.50;;;;;11.04;76.99;102486.13;5042182;28;70526;-61
2024/01/23 09:25:29;;;;;;;;;6.00;5.00;;;;;11.09;76.89;102480.00;5043350;28;45272;-61
2024/01/23 09:27:55;;;;;;;;;11.75;5.50;;;;;11.17;76.44;102480.00;5045310;28;45338;-60
2024/01/23 09:30:21;;;;;;;;;9.25;5.00;;;;;11.23;76.76;102476.53;5043716;28;45391;-61
2024/01/23 09:32:47;;;;;;;;;4.00;3.25;;;;;11.27;76.23;102471.25;5045426;28;46129;-61
2024/01/23 09:35:13;;;;;;;;;5.00;2.50;;;;;11.29;76.12;102468.63;5057253;28;45407;-61
2024/01/23 09:37:38;;;;;;;;;5.00;5.00;;;;;11.29;75.93;102468.63;5045778;28;45279;-61
2024/01/23 09:40:05;;;;;;;;;8.00;4.00;;;;;11.31;75.91;102472.13;5044400;28;45243;-61
2024/01/23 09:42:31;;;;;;;;;10.50;4.00;;;;;11.32;76.26;102466.88;5073453;27;45383;-61
2024/01/23 09:44:58;;;;;;;;;9.75;4.00;;;;;11.33;75.55;102465.13;5039620;28;66883;-61
2024/01/23 09:47:24;;;;;;;;;6.75;4.75;;;;;11.36;75.83;102458.13;5040127;28;45288;-62
2024/01/23 09:49:51;;;;;;;;;14.50;6.00;;;;;11.43;75.86;102458.13;5040235;28;45343;-60
2024/01/23 09:52:17;;;;;;;;;6.50;3.50;;;;;11.47;75.72;102458.09;5040619;28;61081;-62
2024/01/23 09:54:42;;;;;;;;;8.75;5.00;;;;;11.51;75.19;102453.69;5039856;28;45416;-61
2024/01/23 09:57:08;;;;;;;;;9.00;5.25;;;;;11.53;75.56;102451.97;5040787;28;69015;-62
2024/01/23 09:59:33;;;;;;;;;9.25;6.00;;;;;11.54;74.96;102444.09;5039745;28;45506;-61
2024/01/23 10:01:58;;;;;;;;;8.00;4.50;;;;;11.57;74.85;102446.69;5040181;28;71625;-60
2024/01/23 10:04:24;;;;;;;;;13.75;4.50;;;;;11.59;75.09;102437.06;5041224;28;45302;-61
2024/01/23 10:06:49;;;;;;;;;8.50;5.00;;;;;11.62;74.72;102444.06;5073438;27;45624;-61
2024/01/23 10:09:15;;;;;;;;;6.50;4.50;;;;;11.64;74.96;102447.56;5039751;28;45521;-61
2024/01/23 10:11:40;;;;;;;;;9.25;4.00;;;;;11.64;74.76;102446.69;5043175;28;75679;-61
2024/01/23 10:14:06;;;;;;;;;9.00;5.75;;;;;11.64;74.92;102449.31;5043311;28;45377;-61
2024/01/23 10:16:32;;;;;;;;;5.75;4.50;;;;;11.66;74.94;102443.16;5041172;28;45451;-60
2024/01/23 10:18:57;;;;;;;;;14.00;3.25;;;;;11.69;74.53;102445.78;5040049;28;66682;-61
2024/01/23 10:21:23;;;;;;;;;7.75;4.50;;;;;11.67;74.87;102442.31;5041034;28;45349;-61
2024/01/23 10:23:51;;;;;;;;;9.00;4.25;;;;;11.66;74.73;102444.94;5072850;28;45407;-62
2024/01/23 10:26:18;;;;;;;;;7.50;5.00;;;;;11.63;74.39;102451.03;5040938;28;45314;-62
2024/01/23 10:28:43;;;;;;;;;7.25;3.00;;;;;11.62;74.84;102438.81;5039789;28;45454;-62
2024/01/23 10:31:09;;;;;;;;;7.00;5.00;;;;;11.59;74.73;102431.81;5040372;28;46089;-60
2024/01/23 10:33:34;;;;;;;;;16.00;7.25;;;;;11.60;74.82;102432.72;5040629;28;45489;-60
2024/01/23 10:36:01;;;;;;;;;11.75;5.25;;;;;11.59;74.98;102444.06;5073361;28;45284;-61
2024/01/23 10:38:26;;;;;;;;;12.75;8.25;;;;;11.62;75.25;102441.44;5039003;28;45439;-61
2024/01/23 10:40:53;;;;;;;;;10.50;7.25;;;;;11.63;74.88;102440.56;5036995;28;46549;-61
2024/01/23 10:43:19;;;;;;;;;8.25;6.25;;;;;11.64;75.36;102447.56;5039933;28;45348;-61
2024/01/23 10:45:45;;;;;;;;;10.50;5.50;;;;;11.63;75.20;102450.19;5039593;28;67434;-61
2024/01/23 10:48:11;;;;;;;;;8.50;5.00;;;;;11.64;75.37;102465.03;5046401;28;45435;-61
2024/01/23 10:50:36;;;;;;;;;11.50;4.50;;;;;11.63;75.85;102465.91;5054892;28;64902;-61
2024/01/23 10:53:06;;;;;;;;;9.50;5.25;;;;;11.59;75.55;102455.41;5078156;27;45341;-60
2024/01/23 10:55:32;;;;;;;;;12.00;5.25;;;;;11.58;76.57;102431.84;5040038;28;45382;-61
2024/01/23 10:58:02;;;;;;;;;6.25;5.25;;;;;11.52;76.61;102396.03;5040379;28;45500;-61
2024/01/23 11:00:27;;;;;;;;;10.50;6.00;;;;;11.52;76.71;102390.78;5034059;28;46172;-61
2024/01/23 11:03:00;;;;;;;;;16.00;7.00;;;;;11.57;77.43;102393.38;5046152;28;45285;-62
2024/01/23 11:05:35;;;;;;;;;22.50;9.25;;;;;11.58;77.60;102413.50;5040700;28;45382;-61
2024/01/23 11:08:09;;;;;;;;;12.50;6.00;;;;;11.61;77.84;102412.59;5038642;28;45340;-60
2024/01/23 11:10:57;;;;;;;;;15.25;7.50;;;;;11.62;78.05;102404.72;5039055;28;47064;-61
2024/01/23 11:13:42;;;;;;;;;6.50;5.75;;;;;11.64;78.11;102400.34;5049554;28;45708;-61
2024/01/23 11:16:09;;;;;;;;;11.00;6.50;;;;;11.65;78.38;102372.38;5040235;28;45453;-59
2024/01/23 11:18:35;;;;;;;;;16.00;5.25;;;;;11.71;78.52;102354.84;5040581;28;45356;-59